sensor_id;sensor_type;location;lat;lon;timestamp;P1;durP1;ratioP1;P2;durP2;ratioP2
61291;SDS011;47165;42.664;23.368;2023-03-11T00:00:37;3.25;;;1.98;;
61291;SDS011;47165;42.664;23.368;2023-03-11T00:03:05;2.85;;;2.42;;
61291;SDS011;47165;42.664;23.368;2023-03-11T00:05:32;4.47;;;2.83;;
61291;SDS011;47165;42.664;23.368;2023-03-11T00:08:02;5.70;;;2.85;;
61291;SDS011;47165;42.664;23.368;2023-03-11T00:10:30;4.20;;;3.50;;
61291;SDS011;47165;42.664;23.368;2023-03-11T00:12:58;3.25;;;2.55;;
61291;SDS011;47165;42.664;23.368;2023-03-11T00:15:25;2.97;;;1.48;;
61291;SDS011;47165;42.664;23.368;2023-03-11T00:17:51;2.80;;;1.52;;
61291;SDS011;47165;42.664;23.368;2023-03-11T00:20:33;2.58;;;0.60;;
61291;SDS011;47165;42.664;23.368;2023-03-11T00:23:00;0.50;;;0.50;;
61291;SDS011;47165;42.664;23.368;2023-03-11T00:25:27;0.93;;;0.70;;
61291;SDS011;47165;42.664;23.368;2023-03-11T00:27:54;1.42;;;1.10;;
61291;SDS011;47165;42.664;23.368;2023-03-11T00:30:21;0.40;;;0.40;;
61291;SDS011;47165;42.664;23.368;2023-03-11T00:32:47;0.30;;;0.30;;
61291;SDS011;47165;42.664;23.368;2023-03-11T00:35:16;0.22;;;0.22;;
61291;SDS011;47165;42.664;23.368;2023-03-11T00:37:43;0.88;;;0.30;;
61291;SDS011;47165;42.664;23.368;2023-03-11T00:40:11;0.80;;;0.25;;
61291;SDS011;47165;42.664;23.368;2023-03-11T00:42:38;0.15;;;0.15;;
61291;SDS011;47165;42.664;23.368;2023-03-11T00:45:04;0.00;;;0.00;;
61291;SDS011;47165;42.664;23.368;2023-03-11T00:47:30;0.10;;;0.10;;
61291;SDS011;47165;42.664;23.368;2023-03-11T00:49:55;1.45;;;0.22;;
61291;SDS011;47165;42.664;23.368;2023-03-11T00:52:20;0.05;;;0.05;;
61291;SDS011;47165;42.664;23.368;2023-03-11T00:54:46;1.02;;;0.17;;
61291;SDS011;47165;42.664;23.368;2023-03-11T00:57:11;0.10;;;0.10;;
61291;SDS011;47165;42.664;23.368;2023-03-11T00:59:36;0.10;;;0.10;;
61291;SDS011;47165;42.664;23.368;2023-03-11T01:02:02;0.20;;;0.10;;
61291;SDS011;47165;42.664;23.368;2023-03-11T01:04:27;0.00;;;0.00;;
61291;SDS011;47165;42.664;23.368;2023-03-11T01:06:53;0.10;;;0.10;;
61291;SDS011;47165;42.664;23.368;2023-03-11T01:09:18;0.95;;;0.22;;
61291;SDS011;47165;42.664;23.368;2023-03-11T01:11:44;0.17;;;0.13;;
61291;SDS011;47165;42.664;23.368;2023-03-11T01:14:09;0.30;;;0.17;;
61291;SDS011;47165;42.664;23.368;2023-03-11T01:16:35;0.47;;;0.20;;
61291;SDS011;47165;42.664;23.368;2023-03-11T01:19:00;0.10;;;0.10;;
61291;SDS011;47165;42.664;23.368;2023-03-11T01:21:26;0.45;;;0.20;;
61291;SDS011;47165;42.664;23.368;2023-03-11T01:23:51;1.42;;;0.17;;
61291;SDS011;47165;42.664;23.368;2023-03-11T01:26:16;0.43;;;0.25;;
61291;SDS011;47165;42.664;23.368;2023-03-11T01:28:42;0.77;;;0.20;;
61291;SDS011;47165;42.664;23.368;2023-03-11T01:31:08;0.25;;;0.25;;
61291;SDS011;47165;42.664;23.368;2023-03-11T01:33:34;0.30;;;0.30;;
61291;SDS011;47165;42.664;23.368;2023-03-11T01:35:59;0.75;;;0.15;;
61291;SDS011;47165;42.664;23.368;2023-03-11T01:38:25;0.28;;;0.20;;
61291;SDS011;47165;42.664;23.368;2023-03-11T01:40:50;0.82;;;0.55;;
61291;SDS011;47165;42.664;23.368;2023-03-11T01:48:41;0.10;;;0.10;;
61291;SDS011;47165;42.664;23.368;2023-03-11T01:51:14;0.27;;;0.20;;
61291;SDS011;47165;42.664;23.368;2023-03-11T01:53:43;0.98;;;0.20;;
61291;SDS011;47165;42.664;23.368;2023-03-11T01:56:09;0.20;;;0.20;;
61291;SDS011;47165;42.664;23.368;2023-03-11T01:58:36;0.40;;;0.30;;
61291;SDS011;47165;42.664;23.368;2023-03-11T02:01:05;1.00;;;0.28;;
61291;SDS011;47165;42.664;23.368;2023-03-11T02:03:33;0.40;;;0.30;;
61291;SDS011;47165;42.664;23.368;2023-03-11T02:06:03;0.28;;;0.28;;
61291;SDS011;47165;42.664;23.368;2023-03-11T02:08:32;0.22;;;0.20;;
61291;SDS011;47165;42.664;23.368;2023-03-11T02:11:01;0.13;;;0.13;;
61291;SDS011;47165;42.664;23.368;2023-03-11T02:13:29;0.10;;;0.10;;
61291;SDS011;47165;42.664;23.368;2023-03-11T02:15:58;0.22;;;0.22;;
61291;SDS011;47165;42.664;23.368;2023-03-11T02:18:24;0.50;;;0.47;;
61291;SDS011;47165;42.664;23.368;2023-03-11T02:20:59;0.15;;;0.15;;
61291;SDS011;47165;42.664;23.368;2023-03-11T02:23:35;0.30;;;0.30;;
61291;SDS011;47165;42.664;23.368;2023-03-11T02:26:14;0.28;;;0.25;;
61291;SDS011;47165;42.664;23.368;2023-03-11T02:28:45;0.35;;;0.35;;
61291;SDS011;47165;42.664;23.368;2023-03-11T02:31:12;1.15;;;0.60;;
61291;SDS011;47165;42.664;23.368;2023-03-11T02:33:38;1.92;;;0.68;;
61291;SDS011;47165;42.664;23.368;2023-03-11T02:36:05;1.38;;;0.80;;
61291;SDS011;47165;42.664;23.368;2023-03-11T02:38:31;2.15;;;0.95;;
61291;SDS011;47165;42.664;23.368;2023-03-11T02:40:58;0.45;;;0.45;;
61291;SDS011;47165;42.664;23.368;2023-03-11T02:43:39;1.35;;;0.77;;
61291;SDS011;47165;42.664;23.368;2023-03-11T02:46:07;0.88;;;0.60;;
61291;SDS011;47165;42.664;23.368;2023-03-11T02:48:35;0.65;;;0.55;;
61291;SDS011;47165;42.664;23.368;2023-03-11T02:51:02;1.65;;;0.85;;
61291;SDS011;47165;42.664;23.368;2023-03-11T02:53:29;0.75;;;0.28;;
61291;SDS011;47165;42.664;23.368;2023-03-11T02:55:58;1.13;;;0.50;;
61291;SDS011;47165;42.664;23.368;2023-03-11T02:58:24;1.13;;;0.55;;
61291;SDS011;47165;42.664;23.368;2023-03-11T03:00:49;0.38;;;0.38;;
61291;SDS011;47165;42.664;23.368;2023-03-11T03:03:14;0.75;;;0.70;;
61291;SDS011;47165;42.664;23.368;2023-03-11T03:05:40;1.52;;;0.77;;
61291;SDS011;47165;42.664;23.368;2023-03-11T03:08:05;1.38;;;0.80;;
61291;SDS011;47165;42.664;23.368;2023-03-11T03:10:31;1.90;;;0.75;;
61291;SDS011;47165;42.664;23.368;2023-03-11T03:12:56;2.50;;;0.52;;
61291;SDS011;47165;42.664;23.368;2023-03-11T03:15:22;0.85;;;0.60;;
61291;SDS011;47165;42.664;23.368;2023-03-11T03:17:47;2.78;;;0.70;;
61291;SDS011;47165;42.664;23.368;2023-03-11T03:20:15;1.80;;;0.77;;
61291;SDS011;47165;42.664;23.368;2023-03-11T03:22:42;1.15;;;0.80;;
61291;SDS011;47165;42.664;23.368;2023-03-11T03:25:08;1.88;;;0.77;;
61291;SDS011;47165;42.664;23.368;2023-03-11T03:27:34;0.85;;;0.55;;
61291;SDS011;47165;42.664;23.368;2023-03-11T03:30:00;0.47;;;0.47;;
61291;SDS011;47165;42.664;23.368;2023-03-11T03:32:26;1.58;;;0.75;;
61291;SDS011;47165;42.664;23.368;2023-03-11T03:34:52;1.92;;;0.85;;
61291;SDS011;47165;42.664;23.368;2023-03-11T03:37:22;1.27;;;0.57;;
61291;SDS011;47165;42.664;23.368;2023-03-11T03:39:47;0.65;;;0.40;;
61291;SDS011;47165;42.664;23.368;2023-03-11T03:42:13;0.65;;;0.43;;
61291;SDS011;47165;42.664;23.368;2023-03-11T03:44:38;2.22;;;0.90;;
61291;SDS011;47165;42.664;23.368;2023-03-11T03:47:04;0.50;;;0.30;;
61291;SDS011;47165;42.664;23.368;2023-03-11T03:49:29;1.63;;;0.68;;
61291;SDS011;47165;42.664;23.368;2023-03-11T03:51:54;0.55;;;0.40;;
61291;SDS011;47165;42.664;23.368;2023-03-11T03:54:20;0.60;;;0.60;;
61291;SDS011;47165;42.664;23.368;2023-03-11T03:56:45;0.77;;;0.73;;
61291;SDS011;47165;42.664;23.368;2023-03-11T03:59:11;1.40;;;0.82;;
61291;SDS011;47165;42.664;23.368;2023-03-11T04:01:37;1.42;;;0.75;;
61291;SDS011;47165;42.664;23.368;2023-03-11T04:04:02;2.60;;;0.65;;
61291;SDS011;47165;42.664;23.368;2023-03-11T04:06:28;0.90;;;0.68;;
61291;SDS011;47165;42.664;23.368;2023-03-11T04:08:53;3.88;;;1.45;;
61291;SDS011;47165;42.664;23.368;2023-03-11T04:11:19;1.38;;;1.00;;
61291;SDS011;47165;42.664;23.368;2023-03-11T04:13:45;1.95;;;1.00;;
61291;SDS011;47165;42.664;23.368;2023-03-11T04:16:15;0.85;;;0.70;;
61291;SDS011;47165;42.664;23.368;2023-03-11T04:18:43;2.10;;;1.15;;
61291;SDS011;47165;42.664;23.368;2023-03-11T04:21:08;1.50;;;1.15;;
61291;SDS011;47165;42.664;23.368;2023-03-11T04:23:34;1.08;;;0.85;;
61291;SDS011;47165;42.664;23.368;2023-03-11T04:26:00;1.55;;;0.68;;
61291;SDS011;47165;42.664;23.368;2023-03-11T04:28:25;1.60;;;0.80;;
61291;SDS011;47165;42.664;23.368;2023-03-11T04:30:51;0.90;;;0.52;;
61291;SDS011;47165;42.664;23.368;2023-03-11T04:33:17;2.05;;;0.98;;
61291;SDS011;47165;42.664;23.368;2023-03-11T04:35:42;0.82;;;0.55;;
61291;SDS011;47165;42.664;23.368;2023-03-11T04:38:08;0.85;;;0.77;;
61291;SDS011;47165;42.664;23.368;2023-03-11T04:40:33;1.33;;;1.05;;
61291;SDS011;47165;42.664;23.368;2023-03-11T04:43:01;1.63;;;0.93;;
61291;SDS011;47165;42.664;23.368;2023-03-11T04:45:26;1.10;;;0.77;;
61291;SDS011;47165;42.664;23.368;2023-03-11T04:47:52;1.15;;;0.82;;
61291;SDS011;47165;42.664;23.368;2023-03-11T04:50:17;3.42;;;0.80;;
61291;SDS011;47165;42.664;23.368;2023-03-11T04:52:43;0.93;;;0.52;;
61291;SDS011;47165;42.664;23.368;2023-03-11T04:55:09;3.05;;;0.47;;
61291;SDS011;47165;42.664;23.368;2023-03-11T04:57:35;0.35;;;0.35;;
61291;SDS011;47165;42.664;23.368;2023-03-11T05:00:02;0.35;;;0.28;;
61291;SDS011;47165;42.664;23.368;2023-03-11T05:02:32;0.10;;;0.10;;
61291;SDS011;47165;42.664;23.368;2023-03-11T05:04:57;0.38;;;0.38;;
61291;SDS011;47165;42.664;23.368;2023-03-11T05:07:23;1.95;;;0.30;;
61291;SDS011;47165;42.664;23.368;2023-03-11T05:09:48;1.40;;;0.50;;
61291;SDS011;47165;42.664;23.368;2023-03-11T05:12:13;0.15;;;0.08;;
61291;SDS011;47165;42.664;23.368;2023-03-11T05:14:39;1.33;;;0.40;;
61291;SDS011;47165;42.664;23.368;2023-03-11T05:17:04;2.40;;;0.40;;
61291;SDS011;47165;42.664;23.368;2023-03-11T05:19:30;1.15;;;0.25;;
61291;SDS011;47165;42.664;23.368;2023-03-11T05:21:55;0.15;;;0.08;;
61291;SDS011;47165;42.664;23.368;2023-03-11T05:24:21;0.00;;;0.00;;
61291;SDS011;47165;42.664;23.368;2023-03-11T05:26:47;0.73;;;0.35;;
61291;SDS011;47165;42.664;23.368;2023-03-11T05:29:13;0.00;;;0.00;;
61291;SDS011;47165;42.664;23.368;2023-03-11T05:31:38;0.00;;;0.00;;
61291;SDS011;47165;42.664;23.368;2023-03-11T05:34:04;0.10;;;0.10;;
61291;SDS011;47165;42.664;23.368;2023-03-11T05:36:29;0.30;;;0.20;;
61291;SDS011;47165;42.664;23.368;2023-03-11T05:38:54;0.10;;;0.10;;
61291;SDS011;47165;42.664;23.368;2023-03-11T05:41:20;0.47;;;0.30;;
61291;SDS011;47165;42.664;23.368;2023-03-11T05:43:45;0.30;;;0.28;;
61291;SDS011;47165;42.664;23.368;2023-03-11T05:46:11;0.17;;;0.17;;
61291;SDS011;47165;42.664;23.368;2023-03-11T05:48:36;0.22;;;0.10;;
61291;SDS011;47165;42.664;23.368;2023-03-11T05:51:06;0.13;;;0.13;;
61291;SDS011;47165;42.664;23.368;2023-03-11T05:53:35;0.05;;;0.05;;
61291;SDS011;47165;42.664;23.368;2023-03-11T05:56:01;0.10;;;0.10;;
61291;SDS011;47165;42.664;23.368;2023-03-11T05:58:27;0.63;;;0.30;;
61291;SDS011;47165;42.664;23.368;2023-03-11T06:00:53;0.10;;;0.10;;
61291;SDS011;47165;42.664;23.368;2023-03-11T06:03:19;1.10;;;0.30;;
61291;SDS011;47165;42.664;23.368;2023-03-11T06:05:44;0.10;;;0.10;;
61291;SDS011;47165;42.664;23.368;2023-03-11T06:08:11;0.57;;;0.20;;
61291;SDS011;47165;42.664;23.368;2023-03-11T06:10:36;0.20;;;0.20;;
61291;SDS011;47165;42.664;23.368;2023-03-11T06:13:02;0.00;;;0.00;;
61291;SDS011;47165;42.664;23.368;2023-03-11T06:15:27;1.20;;;0.32;;
61291;SDS011;47165;42.664;23.368;2023-03-11T06:17:53;12.32;;;0.73;;
61291;SDS011;47165;42.664;23.368;2023-03-11T06:20:18;0.00;;;0.00;;
61291;SDS011;47165;42.664;23.368;2023-03-11T06:22:46;0.57;;;0.30;;
61291;SDS011;47165;42.664;23.368;2023-03-11T06:25:12;0.20;;;0.20;;
61291;SDS011;47165;42.664;23.368;2023-03-11T06:27:38;0.73;;;0.20;;
61291;SDS011;47165;42.664;23.368;2023-03-11T06:30:03;1.20;;;0.38;;
61291;SDS011;47165;42.664;23.368;2023-03-11T06:32:29;0.10;;;0.10;;
61291;SDS011;47165;42.664;23.368;2023-03-11T06:34:55;0.08;;;0.03;;
61291;SDS011;47165;42.664;23.368;2023-03-11T06:37:20;0.13;;;0.13;;
61291;SDS011;47165;42.664;23.368;2023-03-11T06:39:50;0.45;;;0.30;;
61291;SDS011;47165;42.664;23.368;2023-03-11T06:42:16;0.30;;;0.30;;
61291;SDS011;47165;42.664;23.368;2023-03-11T06:44:42;0.10;;;0.10;;
61291;SDS011;47165;42.664;23.368;2023-03-11T06:47:07;0.15;;;0.15;;
61291;SDS011;47165;42.664;23.368;2023-03-11T06:49:33;1.25;;;0.40;;
61291;SDS011;47165;42.664;23.368;2023-03-11T06:51:58;0.32;;;0.20;;
61291;SDS011;47165;42.664;23.368;2023-03-11T06:54:24;0.22;;;0.22;;
61291;SDS011;47165;42.664;23.368;2023-03-11T06:56:49;0.40;;;0.40;;
61291;SDS011;47165;42.664;23.368;2023-03-11T06:59:14;0.50;;;0.30;;
61291;SDS011;47165;42.664;23.368;2023-03-11T07:01:40;0.20;;;0.10;;
61291;SDS011;47165;42.664;23.368;2023-03-11T07:04:05;0.70;;;0.32;;
61291;SDS011;47165;42.664;23.368;2023-03-11T07:06:31;0.52;;;0.28;;
61291;SDS011;47165;42.664;23.368;2023-03-11T07:08:56;0.40;;;0.20;;
61291;SDS011;47165;42.664;23.368;2023-03-11T07:11:22;0.57;;;0.30;;
61291;SDS011;47165;42.664;23.368;2023-03-11T07:13:50;0.35;;;0.17;;
61291;SDS011;47165;42.664;23.368;2023-03-11T07:16:20;1.17;;;0.40;;
61291;SDS011;47165;42.664;23.368;2023-03-11T07:18:47;0.32;;;0.32;;
61291;SDS011;47165;42.664;23.368;2023-03-11T07:21:16;0.30;;;0.30;;
61291;SDS011;47165;42.664;23.368;2023-03-11T07:23:44;0.05;;;0.05;;
61291;SDS011;47165;42.664;23.368;2023-03-11T07:26:10;1.20;;;0.20;;
61291;SDS011;47165;42.664;23.368;2023-03-11T07:28:38;0.15;;;0.05;;
61291;SDS011;47165;42.664;23.368;2023-03-11T07:31:11;0.52;;;0.30;;
61291;SDS011;47165;42.664;23.368;2023-03-11T07:33:38;0.10;;;0.10;;
61291;SDS011;47165;42.664;23.368;2023-03-11T07:36:07;0.40;;;0.25;;
61291;SDS011;47165;42.664;23.368;2023-03-11T07:38:35;0.10;;;0.10;;
61291;SDS011;47165;42.664;23.368;2023-03-11T07:41:01;0.30;;;0.30;;
61291;SDS011;47165;42.664;23.368;2023-03-11T07:43:26;0.10;;;0.10;;
61291;SDS011;47165;42.664;23.368;2023-03-11T07:45:56;0.38;;;0.30;;
61291;SDS011;47165;42.664;23.368;2023-03-11T07:48:46;0.65;;;0.40;;
61291;SDS011;47165;42.664;23.368;2023-03-11T07:51:20;0.00;;;0.00;;
61291;SDS011;47165;42.664;23.368;2023-03-11T07:53:47;1.20;;;0.90;;
61291;SDS011;47165;42.664;23.368;2023-03-11T07:56:14;0.75;;;0.50;;
61291;SDS011;47165;42.664;23.368;2023-03-11T07:58:40;0.30;;;0.20;;
61291;SDS011;47165;42.664;23.368;2023-03-11T08:01:07;6.82;;;1.55;;
61291;SDS011;47165;42.664;23.368;2023-03-11T08:03:34;0.20;;;0.20;;
61291;SDS011;47165;42.664;23.368;2023-03-11T08:06:00;0.50;;;0.50;;
61291;SDS011;47165;42.664;23.368;2023-03-11T08:08:27;1.65;;;0.63;;
61291;SDS011;47165;42.664;23.368;2023-03-11T08:10:52;1.02;;;0.57;;
61291;SDS011;47165;42.664;23.368;2023-03-11T08:13:18;0.77;;;0.45;;
61291;SDS011;47165;42.664;23.368;2023-03-11T08:15:44;0.20;;;0.20;;
61291;SDS011;47165;42.664;23.368;2023-03-11T08:18:09;2.05;;;0.50;;
61291;SDS011;47165;42.664;23.368;2023-03-11T08:20:37;1.80;;;0.63;;
61291;SDS011;47165;42.664;23.368;2023-03-11T08:23:03;1.00;;;0.70;;
61291;SDS011;47165;42.664;23.368;2023-03-11T08:25:29;1.02;;;0.55;;
61291;SDS011;47165;42.664;23.368;2023-03-11T08:27:54;4.78;;;0.98;;
61291;SDS011;47165;42.664;23.368;2023-03-11T08:30:20;0.30;;;0.30;;
61291;SDS011;47165;42.664;23.368;2023-03-11T08:32:46;0.20;;;0.20;;
61291;SDS011;47165;42.664;23.368;2023-03-11T08:35:13;0.63;;;0.52;;
61291;SDS011;47165;42.664;23.368;2023-03-11T08:37:38;2.55;;;0.47;;
61291;SDS011;47165;42.664;23.368;2023-03-11T08:40:04;0.73;;;0.70;;
61291;SDS011;47165;42.664;23.368;2023-03-11T08:42:29;0.70;;;0.57;;
61291;SDS011;47165;42.664;23.368;2023-03-11T08:44:55;0.00;;;0.00;;
61291;SDS011;47165;42.664;23.368;2023-03-11T08:47:20;0.57;;;0.30;;
61291;SDS011;47165;42.664;23.368;2023-03-11T08:49:46;1.13;;;0.82;;
61291;SDS011;47165;42.664;23.368;2023-03-11T08:52:11;1.20;;;0.63;;
61291;SDS011;47165;42.664;23.368;2023-03-11T08:54:36;1.75;;;0.63;;
61291;SDS011;47165;42.664;23.368;2023-03-11T08:57:02;2.60;;;0.95;;
61291;SDS011;47165;42.664;23.368;2023-03-11T08:59:29;0.40;;;0.38;;
61291;SDS011;47165;42.664;23.368;2023-03-11T09:01:54;0.50;;;0.50;;
61291;SDS011;47165;42.664;23.368;2023-03-11T09:04:20;2.55;;;1.20;;
61291;SDS011;47165;42.664;23.368;2023-03-11T09:06:45;1.40;;;0.50;;
61291;SDS011;47165;42.664;23.368;2023-03-11T09:09:12;1.60;;;0.77;;
61291;SDS011;47165;42.664;23.368;2023-03-11T09:11:40;0.28;;;0.28;;
61291;SDS011;47165;42.664;23.368;2023-03-11T09:14:06;0.98;;;0.47;;
61291;SDS011;47165;42.664;23.368;2023-03-11T09:16:31;1.17;;;0.60;;
61291;SDS011;47165;42.664;23.368;2023-03-11T09:18:57;0.47;;;0.40;;
61291;SDS011;47165;42.664;23.368;2023-03-11T09:21:24;2.03;;;0.43;;
61291;SDS011;47165;42.664;23.368;2023-03-11T09:23:49;0.55;;;0.30;;
61291;SDS011;47165;42.664;23.368;2023-03-11T09:26:15;0.50;;;0.40;;
61291;SDS011;47165;42.664;23.368;2023-03-11T09:28:41;2.13;;;0.80;;
61291;SDS011;47165;42.664;23.368;2023-03-11T09:31:07;0.32;;;0.25;;
61291;SDS011;47165;42.664;23.368;2023-03-11T09:33:36;0.30;;;0.30;;
61291;SDS011;47165;42.664;23.368;2023-03-11T09:36:03;0.55;;;0.40;;
61291;SDS011;47165;42.664;23.368;2023-03-11T09:38:29;0.75;;;0.52;;
61291;SDS011;47165;42.664;23.368;2023-03-11T09:43:39;1.60;;;1.50;;
61291;SDS011;47165;42.664;23.368;2023-03-11T09:48:55;1.23;;;0.80;;
61291;SDS011;47165;42.664;23.368;2023-03-11T09:55:15;0.70;;;0.60;;
61291;SDS011;47165;42.664;23.368;2023-03-11T09:57:53;3.72;;;0.95;;
61291;SDS011;47165;42.664;23.368;2023-03-11T10:00:22;1.02;;;0.70;;
61291;SDS011;47165;42.664;23.368;2023-03-11T10:02:49;0.70;;;0.68;;
61291;SDS011;47165;42.664;23.368;2023-03-11T10:05:27;1.02;;;0.57;;
61291;SDS011;47165;42.664;23.368;2023-03-11T10:08:11;1.02;;;0.50;;
61291;SDS011;47165;42.664;23.368;2023-03-11T10:10:49;0.60;;;0.53;;
61291;SDS011;47165;42.664;23.368;2023-03-11T10:13:26;1.85;;;0.80;;
61291;SDS011;47165;42.664;23.368;2023-03-11T10:16:04;0.80;;;0.57;;
61291;SDS011;47165;42.664;23.368;2023-03-11T10:26:45;0.40;;;0.40;;
61291;SDS011;47165;42.664;23.368;2023-03-11T10:31:58;1.17;;;0.80;;
61291;SDS011;47165;42.664;23.368;2023-03-11T10:34:34;2.30;;;0.60;;
61291;SDS011;47165;42.664;23.368;2023-03-11T10:39:47;1.23;;;0.65;;
61291;SDS011;47165;42.664;23.368;2023-03-11T10:42:18;0.90;;;0.60;;
61291;SDS011;47165;42.664;23.368;2023-03-11T10:44:47;0.90;;;0.60;;
61291;SDS011;47165;42.664;23.368;2023-03-11T10:47:16;0.70;;;0.52;;
61291;SDS011;47165;42.664;23.368;2023-03-11T10:49:44;1.92;;;0.70;;
61291;SDS011;47165;42.664;23.368;2023-03-11T10:52:09;0.43;;;0.43;;
61291;SDS011;47165;42.664;23.368;2023-03-11T10:54:36;1.05;;;0.60;;
61291;SDS011;47165;42.664;23.368;2023-03-11T10:59:49;1.25;;;0.60;;
61291;SDS011;47165;42.664;23.368;2023-03-11T11:13:02;0.52;;;0.43;;
61291;SDS011;47165;42.664;23.368;2023-03-11T11:15:33;0.60;;;0.40;;
61291;SDS011;47165;42.664;23.368;2023-03-11T11:18:01;0.30;;;0.30;;
61291;SDS011;47165;42.664;23.368;2023-03-11T11:20:27;1.30;;;0.50;;
61291;SDS011;47165;42.664;23.368;2023-03-11T11:22:56;0.77;;;0.50;;
61291;SDS011;47165;42.664;23.368;2023-03-11T11:25:36;0.38;;;0.20;;
61291;SDS011;47165;42.664;23.368;2023-03-11T11:30:53;2.72;;;0.40;;
61291;SDS011;47165;42.664;23.368;2023-03-11T11:33:27;1.05;;;0.50;;
61291;SDS011;47165;42.664;23.368;2023-03-11T11:35:56;0.98;;;0.50;;
61291;SDS011;47165;42.664;23.368;2023-03-11T11:38:24;0.68;;;0.30;;
61291;SDS011;47165;42.664;23.368;2023-03-11T11:40:52;0.57;;;0.38;;
61291;SDS011;47165;42.664;23.368;2023-03-11T11:43:21;0.00;;;0.00;;
61291;SDS011;47165;42.664;23.368;2023-03-11T11:45:58;2.10;;;0.75;;
61291;SDS011;47165;42.664;23.368;2023-03-11T11:48:34;0.20;;;0.20;;
61291;SDS011;47165;42.664;23.368;2023-03-11T11:51:15;0.57;;;0.40;;
61291;SDS011;47165;42.664;23.368;2023-03-11T11:56:27;2.17;;;0.55;;
61291;SDS011;47165;42.664;23.368;2023-03-11T11:58:53;0.08;;;0.08;;
61291;SDS011;47165;42.664;23.368;2023-03-11T12:14:38;1.17;;;0.57;;
61291;SDS011;47165;42.664;23.368;2023-03-11T12:17:05;1.75;;;0.50;;
61291;SDS011;47165;42.664;23.368;2023-03-11T12:28:17;5.35;;;0.90;;
61291;SDS011;47165;42.664;23.368;2023-03-11T12:30:49;1.00;;;0.80;;
61291;SDS011;47165;42.664;23.368;2023-03-11T12:34:03;1.00;;;0.40;;
61291;SDS011;47165;42.664;23.368;2023-03-11T12:36:07;1.05;;;0.47;;
61291;SDS011;47165;42.664;23.368;2023-03-11T12:38:46;1.10;;;0.60;;
61291;SDS011;47165;42.664;23.368;2023-03-11T12:46:10;1.25;;;0.20;;
61291;SDS011;47165;42.664;23.368;2023-03-11T12:53:50;0.10;;;0.10;;
61291;SDS011;47165;42.664;23.368;2023-03-11T13:01:49;1.17;;;0.45;;
61291;SDS011;47165;42.664;23.368;2023-03-11T13:04:27;0.82;;;0.22;;
61291;SDS011;47165;42.664;23.368;2023-03-11T13:09:32;0.30;;;0.30;;
61291;SDS011;47165;42.664;23.368;2023-03-11T13:11:58;0.52;;;0.45;;
61291;SDS011;47165;42.664;23.368;2023-03-11T13:14:26;0.52;;;0.32;;
61291;SDS011;47165;42.664;23.368;2023-03-11T13:16:56;0.60;;;0.40;;
61291;SDS011;47165;42.664;23.368;2023-03-11T13:19:49;0.40;;;0.32;;
61291;SDS011;47165;42.664;23.368;2023-03-11T13:25:28;0.40;;;0.20;;
61291;SDS011;47165;42.664;23.368;2023-03-11T13:27:57;0.95;;;0.40;;
61291;SDS011;47165;42.664;23.368;2023-03-11T13:36:40;0.20;;;0.10;;
61291;SDS011;47165;42.664;23.368;2023-03-11T13:39:21;1.80;;;0.80;;
61291;SDS011;47165;42.664;23.368;2023-03-11T13:41:53;0.80;;;0.52;;
61291;SDS011;47165;42.664;23.368;2023-03-11T13:44:29;0.82;;;0.52;;
61291;SDS011;47165;42.664;23.368;2023-03-11T13:47:08;0.77;;;0.38;;
61291;SDS011;47165;42.664;23.368;2023-03-11T13:55:07;4.30;;;1.25;;
61291;SDS011;47165;42.664;23.368;2023-03-11T13:57:40;0.77;;;0.45;;
61291;SDS011;47165;42.664;23.368;2023-03-11T14:00:19;1.85;;;0.60;;
61291;SDS011;47165;42.664;23.368;2023-03-11T14:02:50;0.10;;;0.05;;
61291;SDS011;47165;42.664;23.368;2023-03-11T14:05:25;0.88;;;0.57;;
61291;SDS011;47165;42.664;23.368;2023-03-11T14:07:52;0.55;;;0.40;;
61291;SDS011;47165;42.664;23.368;2023-03-11T14:12:51;0.60;;;0.38;;
61291;SDS011;47165;42.664;23.368;2023-03-11T14:15:30;0.40;;;0.40;;
61291;SDS011;47165;42.664;23.368;2023-03-11T14:20:53;0.17;;;0.17;;
61291;SDS011;47165;42.664;23.368;2023-03-11T14:23:20;0.73;;;0.73;;
61291;SDS011;47165;42.664;23.368;2023-03-11T14:25:46;1.45;;;0.90;;
61291;SDS011;47165;42.664;23.368;2023-03-11T14:28:16;0.90;;;0.55;;
61291;SDS011;47165;42.664;23.368;2023-03-11T14:31:05;0.55;;;0.30;;
61291;SDS011;47165;42.664;23.368;2023-03-11T14:33:30;0.28;;;0.20;;
61291;SDS011;47165;42.664;23.368;2023-03-11T14:36:00;1.45;;;0.60;;
61291;SDS011;47165;42.664;23.368;2023-03-11T14:38:29;0.40;;;0.40;;
61291;SDS011;47165;42.664;23.368;2023-03-11T14:40:57;2.15;;;0.77;;
61291;SDS011;47165;42.664;23.368;2023-03-11T14:43:24;1.50;;;0.60;;
61291;SDS011;47165;42.664;23.368;2023-03-11T14:45:55;0.77;;;0.35;;
61291;SDS011;47165;42.664;23.368;2023-03-11T14:48:28;0.30;;;0.30;;
61291;SDS011;47165;42.664;23.368;2023-03-11T14:51:03;0.63;;;0.40;;
61291;SDS011;47165;42.664;23.368;2023-03-11T14:56:04;0.65;;;0.50;;
61291;SDS011;47165;42.664;23.368;2023-03-11T14:58:39;0.50;;;0.40;;
61291;SDS011;47165;42.664;23.368;2023-03-11T15:06:17;1.50;;;0.80;;
61291;SDS011;47165;42.664;23.368;2023-03-11T15:08:47;0.68;;;0.68;;
61291;SDS011;47165;42.664;23.368;2023-03-11T15:13:44;1.17;;;0.52;;
61291;SDS011;47165;42.664;23.368;2023-03-11T15:19:00;0.43;;;0.32;;
61291;SDS011;47165;42.664;23.368;2023-03-11T15:21:48;1.63;;;1.00;;
61291;SDS011;47165;42.664;23.368;2023-03-11T15:24:24;5.28;;;1.00;;
61291;SDS011;47165;42.664;23.368;2023-03-11T15:27:02;0.75;;;0.75;;
61291;SDS011;47165;42.664;23.368;2023-03-11T15:29:31;0.20;;;0.20;;
61291;SDS011;47165;42.664;23.368;2023-03-11T15:31:57;1.40;;;0.88;;
61291;SDS011;47165;42.664;23.368;2023-03-11T15:34:27;2.20;;;1.00;;
61291;SDS011;47165;42.664;23.368;2023-03-11T15:37:00;2.10;;;0.90;;
61291;SDS011;47165;42.664;23.368;2023-03-11T15:44:33;1.60;;;0.93;;
61291;SDS011;47165;42.664;23.368;2023-03-11T15:47:05;2.38;;;1.40;;
61291;SDS011;47165;42.664;23.368;2023-03-11T15:49:57;2.30;;;0.60;;
61291;SDS011;47165;42.664;23.368;2023-03-11T15:52:26;0.85;;;0.80;;
61291;SDS011;47165;42.664;23.368;2023-03-11T15:54:52;2.65;;;1.08;;
61291;SDS011;47165;42.664;23.368;2023-03-11T15:57:21;0.43;;;0.43;;
61291;SDS011;47165;42.664;23.368;2023-03-11T15:59:50;1.70;;;0.80;;
61291;SDS011;47165;42.664;23.368;2023-03-11T16:02:22;4.78;;;2.25;;
61291;SDS011;47165;42.664;23.368;2023-03-11T16:04:50;2.70;;;1.90;;
61291;SDS011;47165;42.664;23.368;2023-03-11T16:07:16;5.40;;;2.38;;
61291;SDS011;47165;42.664;23.368;2023-03-11T16:09:42;2.67;;;2.33;;
61291;SDS011;47165;42.664;23.368;2023-03-11T16:14:39;3.90;;;2.60;;
61291;SDS011;47165;42.664;23.368;2023-03-11T16:17:04;2.65;;;1.77;;
61291;SDS011;47165;42.664;23.368;2023-03-11T16:19:30;4.22;;;3.60;;
61291;SDS011;47165;42.664;23.368;2023-03-11T16:21:55;2.20;;;1.95;;
61291;SDS011;47165;42.664;23.368;2023-03-11T16:24:21;3.65;;;3.05;;
61291;SDS011;47165;42.664;23.368;2023-03-11T16:26:49;1.40;;;1.17;;
61291;SDS011;47165;42.664;23.368;2023-03-11T16:29:16;3.08;;;1.98;;
61291;SDS011;47165;42.664;23.368;2023-03-11T16:31:42;2.72;;;1.95;;
61291;SDS011;47165;42.664;23.368;2023-03-11T16:34:07;2.85;;;2.03;;
61291;SDS011;47165;42.664;23.368;2023-03-11T16:36:33;2.58;;;1.77;;
61291;SDS011;47165;42.664;23.368;2023-03-11T16:38:58;4.05;;;3.13;;
61291;SDS011;47165;42.664;23.368;2023-03-11T16:41:24;2.92;;;2.33;;
61291;SDS011;47165;42.664;23.368;2023-03-11T16:43:49;5.55;;;2.42;;
61291;SDS011;47165;42.664;23.368;2023-03-11T16:46:15;3.03;;;1.95;;